Time;durP1;ratioP1;P1;durP2;ratioP2;P2;SDS_P1;SDS_P2;PMS_P1;PMS_P2;Temp;Humidity;BMP_temperature;BMP_pressure;BME280_temperature;BME280_humidity;BME280_pressure;Samples;Min_cycle;Max_cycle;Signal;HPM_P1;HPM_P2
2023/05/09 00:00:41;;;;;;;22.17;13.77;;;4.10;99.90;;;;;;10412228;28;20231;-82
2023/05/09 00:05:45;;;;;;;15.90;9.80;;;3.80;99.90;;;;;;10419053;28;20269;-82
2023/05/09 00:10:47;;;;;;;15.73;11.57;;;3.80;99.90;;;;;;10447951;28;20244;-82
2023/05/09 00:15:52;;;;;;;17.80;12.27;;;3.80;99.90;;;;;;10452504;28;20279;-82
2023/05/09 00:20:55;;;;;;;16.57;11.83;;;3.80;99.90;;;;;;10451423;28;20234;-82
2023/05/09 00:25:58;;;;;;;16.43;11.63;;;3.70;99.90;;;;;;10451182;28;20262;-83
2023/05/09 00:31:01;;;;;;;17.00;10.10;;;3.80;99.90;;;;;;10452197;28;20236;-82
2023/05/09 00:36:04;;;;;;;18.13;12.33;;;3.70;99.90;;;;;;10419534;28;20265;-82
2023/05/09 00:41:07;;;;;;;12.97;10.10;;;3.70;99.90;;;;;;10408358;28;20274;-82
2023/05/09 00:46:10;;;;;;;8.87;6.33;;;3.70;99.90;;;;;;10408725;28;20265;-82
2023/05/09 00:51:13;;;;;;;16.70;11.83;;;3.70;99.90;;;;;;10409016;28;20279;-82
2023/05/09 00:56:16;;;;;;;12.30;9.33;;;3.60;99.90;;;;;;10408236;28;20217;-82
2023/05/09 01:01:18;;;;;;;19.60;11.73;;;3.50;99.90;;;;;;10409449;28;20250;-82
2023/05/09 01:06:31;;;;;;;22.37;12.80;;;3.60;99.90;;;;;;10408276;28;20686;-82
2023/05/09 01:11:41;;;;;;;19.03;14.03;;;3.60;99.90;;;;;;10408857;28;20252;-82
2023/05/09 01:16:50;;;;;;;23.73;13.03;;;3.40;99.90;;;;;;10407674;28;20239;-82
2023/05/09 01:21:55;;;;;;;24.07;14.83;;;3.50;99.90;;;;;;10422586;28;20638;-82
2023/05/09 01:27:25;;;;;;;24.10;14.90;;;3.50;99.90;;;;;;10408770;28;20232;-81
2023/05/09 01:32:30;;;;;;;21.57;14.33;;;3.20;99.90;;;;;;10407637;28;20217;-82
2023/05/09 01:37:38;;;;;;;17.30;13.20;;;3.20;99.90;;;;;;10408284;28;20316;-82
2023/05/09 01:42:55;;;;;;;14.57;8.53;;;3.20;99.90;;;;;;10416686;28;20326;-82
2023/05/09 01:48:00;;;;;;;15.00;10.23;;;3.20;99.90;;;;;;10404839;28;20227;-82
2023/05/09 01:53:05;;;;;;;12.83;8.97;;;3.30;99.90;;;;;;10403544;28;20260;-82
2023/05/09 01:58:09;;;;;;;19.97;13.13;;;3.30;99.90;;;;;;10403700;28;20241;-82
2023/05/09 02:03:12;;;;;;;16.73;12.30;;;3.10;99.90;;;;;;10403509;28;20755;-82
2023/05/09 02:08:19;;;;;;;11.93;8.80;;;2.90;99.90;;;;;;10403459;28;20746;-82
2023/05/09 02:13:22;;;;;;;22.80;13.97;;;3.10;99.90;;;;;;10428109;28;20248;-82
2023/05/09 02:18:26;;;;;;;14.97;10.77;;;3.20;99.90;;;;;;10373391;28;20685;-82
2023/05/09 02:23:29;;;;;;;13.77;10.50;;;3.10;99.90;;;;;;10408487;28;20327;-82
2023/05/09 02:28:32;;;;;;;20.00;12.80;;;3.20;99.90;;;;;;10405713;28;20252;-81
2023/05/09 02:33:37;;;;;;;20.37;14.47;;;3.10;99.90;;;;;;10406153;28;20915;-82
2023/05/09 02:38:41;;;;;;;18.90;13.80;;;3.00;99.90;;;;;;10400803;28;20300;-82
2023/05/09 02:43:44;;;;;;;17.10;10.83;;;2.90;99.90;;;;;;10365900;28;20273;-82
2023/05/09 02:48:48;;;;;;;19.47;12.50;;;2.90;99.90;;;;;;10406509;28;20759;-82
2023/05/09 02:53:50;;;;;;;17.07;13.07;;;3.20;99.90;;;;;;10413167;28;20304;-82
2023/05/09 02:58:53;;;;;;;17.33;11.40;;;3.20;99.90;;;;;;10383776;28;20349;-82
2023/05/09 03:03:56;;;;;;;19.70;13.27;;;3.10;99.90;;;;;;10411537;28;20296;-83
2023/05/09 03:08:59;;;;;;;18.00;12.50;;;2.90;99.90;;;;;;10413161;28;20234;-82
2023/05/09 03:14:07;;;;;;;15.70;10.17;;;2.80;99.90;;;;;;10395787;28;20242;-83
2023/05/09 03:19:10;;;;;;;16.20;11.67;;;2.90;99.90;;;;;;10371179;28;20248;-82
2023/05/09 03:24:14;;;;;;;20.27;14.63;;;3.00;99.90;;;;;;10370809;28;20289;-82
2023/05/09 03:29:17;;;;;;;23.37;14.87;;;2.90;99.90;;;;;;10396579;28;20236;-82
2023/05/09 03:34:20;;;;;;;22.23;15.17;;;2.80;99.90;;;;;;10413069;28;20293;-81
2023/05/09 03:39:23;;;;;;;26.83;16.53;;;2.80;99.90;;;;;;10410556;28;20245;-80
2023/05/09 03:44:30;;;;;;;18.83;12.03;;;2.90;99.90;;;;;;10444384;28;20269;-81
2023/05/09 03:49:35;;;;;;;17.67;12.47;;;3.10;99.90;;;;;;10409386;28;20288;-80
2023/05/09 03:54:38;;;;;;;25.97;17.00;;;3.40;99.90;;;;;;10407572;28;20267;-81
2023/05/09 03:59:40;;;;;;;12.40;10.13;;;3.50;99.90;;;;;;10409822;28;20292;-81
2023/05/09 04:04:45;;;;;;;17.57;14.80;;;3.60;99.90;;;;;;10410962;28;20318;-81
2023/05/09 04:09:49;;;;;;;17.03;12.23;;;3.80;99.90;;;;;;10410285;28;20285;-81
2023/05/09 04:14:51;;;;;;;20.50;13.33;;;3.70;99.90;;;;;;10409367;28;20565;-81
2023/05/09 04:19:55;;;;;;;18.60;13.70;;;3.70;99.90;;;;;;10409293;28;20213;-81
2023/05/09 04:24:57;;;;;;;14.30;11.00;;;4.00;99.90;;;;;;10408165;28;20318;-81
2023/05/09 04:30:00;;;;;;;17.03;11.60;;;4.30;99.90;;;;;;10409192;28;20242;-82
2023/05/09 04:35:04;;;;;;;21.20;14.40;;;4.50;99.90;;;;;;10408558;28;20241;-81
2023/05/09 04:40:13;;;;;;;20.00;10.97;;;4.60;99.90;;;;;;10407203;28;20285;-82
2023/05/09 04:45:23;;;;;;;26.23;16.93;;;4.90;99.90;;;;;;10406606;28;20261;-81
2023/05/09 04:50:25;;;;;;;14.03;9.13;;;5.20;99.90;;;;;;10406815;28;20225;-82
2023/05/09 04:55:28;;;;;;;25.47;15.73;;;5.80;99.90;;;;;;10419977;28;20288;-81
2023/05/09 05:00:31;;;;;;;18.57;14.03;;;6.00;99.90;;;;;;10408042;28;20296;-81
2023/05/09 05:05:34;;;;;;;9.97;5.33;;;6.40;99.90;;;;;;10439926;28;20263;-81
2023/05/09 05:10:40;;;;;;;16.50;12.33;;;6.60;99.90;;;;;;10405646;28;20239;-81
2023/05/09 05:15:51;;;;;;;11.60;9.67;;;6.90;99.90;;;;;;10406127;28;20243;-81
2023/05/09 05:20:56;;;;;;;13.10;8.67;;;7.30;99.90;;;;;;10408146;28;20238;-82
2023/05/09 05:26:00;;;;;;;8.03;6.03;;;7.80;99.90;;;;;;10408464;28;20269;-81
2023/05/09 05:31:03;;;;;;;18.23;11.30;;;8.10;99.90;;;;;;10366486;28;20243;-83
2023/05/09 05:36:07;;;;;;;11.53;5.73;;;8.20;99.90;;;;;;10395361;28;20199;-81
2023/05/09 05:41:14;;;;;;;12.87;9.73;;;8.30;99.90;;;;;;10382965;28;20231;-81
2023/05/09 05:46:17;;;;;;;9.70;7.27;;;8.70;99.90;;;;;;10406292;28;20255;-82
2023/05/09 05:51:20;;;;;;;16.90;9.13;;;9.10;99.90;;;;;;10399509;28;21028;-81
2023/05/09 05:56:23;;;;;;;13.03;9.03;;;9.50;99.90;;;;;;10390180;28;20235;-81
2023/05/09 06:01:26;;;;;;;14.80;9.90;;;9.70;99.90;;;;;;10393008;28;20238;-81
2023/05/09 06:06:29;;;;;;;13.83;10.07;;;9.70;99.90;;;;;;10392323;28;20706;-81
2023/05/09 06:11:32;;;;;;;10.97;8.70;;;9.80;99.90;;;;;;10387909;28;20219;-81
2023/05/09 06:16:35;;;;;;;12.27;8.20;;;10.00;99.90;;;;;;10404034;28;20321;-81
2023/05/09 06:21:38;;;;;;;10.07;7.17;;;10.40;99.90;;;;;;10446424;28;20258;-82
2023/05/09 06:26:40;;;;;;;13.30;6.60;;;10.60;99.80;;;;;;10413987;28;20713;-81
2023/05/09 06:31:43;;;;;;;9.10;7.40;;;10.90;99.60;;;;;;10394930;28;20293;-81
2023/05/09 06:36:45;;;;;;;7.73;6.07;;;11.20;96.60;;;;;;10409644;28;20227;-81
2023/05/09 06:41:48;;;;;;;8.13;6.47;;;11.40;98.10;;;;;;10423536;28;20717;-81
2023/05/09 06:46:58;;;;;;;7.90;5.40;;;11.80;96.20;;;;;;10440952;28;20305;-83
2023/05/09 06:52:01;;;;;;;6.90;5.57;;;12.00;95.80;;;;;;10452394;28;20716;-83
2023/05/09 06:57:04;;;;;;;8.73;6.13;;;12.40;95.20;;;;;;10454793;28;20268;-83
2023/05/09 07:02:06;;;;;;;5.80;4.70;;;12.80;91.50;;;;;;10451662;28;20226;-82
2023/05/09 07:07:09;;;;;;;6.00;5.20;;;13.10;90.70;;;;;;10454525;28;20254;-82
2023/05/09 07:12:12;;;;;;;6.40;4.17;;;13.40;90.60;;;;;;10435396;28;20266;-82
2023/05/09 07:17:15;;;;;;;6.43;5.33;;;13.60;84.50;;;;;;10412207;28;20262;-82
2023/05/09 07:22:25;;;;;;;5.73;4.90;;;13.80;77.80;;;;;;10452846;28;20289;-81
2023/05/09 07:27:29;;;;;;;5.90;4.93;;;14.00;75.20;;;;;;10411520;28;20305;-82
2023/05/09 07:32:32;;;;;;;6.20;5.00;;;14.20;72.70;;;;;;10412314;28;20235;-81
2023/05/09 07:37:34;;;;;;;5.90;3.97;;;14.60;71.00;;;;;;10412938;28;20235;-82
2023/05/09 07:42:37;;;;;;;6.20;4.13;;;14.60;71.20;;;;;;10420557;28;20266;-81
2023/05/09 07:47:39;;;;;;;7.83;4.43;;;14.70;65.90;;;;;;10409168;28;20285;-81
2023/05/09 07:52:42;;;;;;;10.03;4.00;;;14.90;69.50;;;;;;10424671;28;20231;-81
2023/05/09 07:57:45;;;;;;;6.17;4.30;;;15.00;60.80;;;;;;10407563;28;20231;-82
2023/05/09 08:02:51;;;;;;;5.47;4.33;;;15.00;57.70;;;;;;10410683;28;20795;-80
2023/05/09 08:07:53;;;;;;;3.93;3.53;;;15.10;55.00;;;;;;10409435;28;20274;-81
2023/05/09 08:12:56;;;;;;;7.63;4.17;;;15.10;56.70;;;;;;10427920;28;20320;-80
2023/05/09 08:17:59;;;;;;;4.60;3.47;;;15.20;55.10;;;;;;10446658;28;20288;-81
2023/05/09 08:23:01;;;;;;;7.50;4.00;;;15.30;57.70;;;;;;10407202;28;20230;-80
2023/05/09 08:28:04;;;;;;;4.97;3.87;;;15.40;51.70;;;;;;10440976;28;20320;-81
2023/05/09 08:33:06;;;;;;;6.03;3.37;;;15.40;48.60;;;;;;10406064;28;20223;-81
2023/05/09 08:38:09;;;;;;;4.93;3.80;;;15.50;50.50;;;;;;10413651;28;20226;-81
2023/05/09 08:43:14;;;;;;;3.87;2.87;;;15.60;48.00;;;;;;10446752;28;20258;-81
2023/05/09 08:48:17;;;;;;;3.17;2.87;;;15.70;54.20;;;;;;10408942;28;20251;-80
2023/05/09 08:53:21;;;;;;;6.50;4.20;;;15.70;48.30;;;;;;10408705;28;20235;-80
2023/05/09 08:58:23;;;;;;;3.03;2.40;;;15.70;43.90;;;;;;10417188;28;20630;-81
2023/05/09 09:03:26;;;;;;;4.93;3.57;;;15.80;47.90;;;;;;10446796;28;20231;-81
2023/05/09 09:08:29;;;;;;;11.33;3.00;;;15.80;41.20;;;;;;10449265;28;20660;-81
2023/05/09 09:13:34;;;;;;;4.27;3.60;;;15.90;42.10;;;;;;10446558;28;20347;-82
2023/05/09 09:18:38;;;;;;;4.43;3.67;;;15.80;38.90;;;;;;10431390;28;20679;-81
2023/05/09 09:23:42;;;;;;;3.93;3.17;;;15.90;42.80;;;;;;10433711;28;20235;-81
2023/05/09 09:28:45;;;;;;;7.50;2.77;;;16.00;40.00;;;;;;10407971;28;20234;-81
2023/05/09 09:33:48;;;;;;;4.37;2.60;;;16.00;38.10;;;;;;10403924;28;20239;-82
2023/05/09 09:38:55;;;;;;;2.90;2.60;;;16.00;34.60;;;;;;10407128;28;20284;-81
2023/05/09 09:43:57;;;;;;;4.60;2.27;;;16.10;34.50;;;;;;10420438;28;20255;-80
2023/05/09 09:49:00;;;;;;;3.33;2.27;;;16.10;30.50;;;;;;10446638;28;20238;-82
2023/05/09 09:54:05;;;;;;;4.80;2.50;;;16.00;41.30;;;;;;10442955;28;20230;-82
2023/05/09 09:59:16;;;;;;;4.30;2.57;;;16.10;32.00;;;;;;10408796;28;20300;-81
2023/05/09 10:04:18;;;;;;;5.20;2.93;;;16.10;30.00;;;;;;10377690;28;20289;-80
2023/05/09 10:09:23;;;;;;;3.70;2.47;;;16.10;28.10;;;;;;10420472;28;20261;-80
2023/05/09 10:14:25;;;;;;;12.03;3.53;;;16.10;32.20;;;;;;10374669;28;20243;-81
2023/05/09 10:19:29;;;;;;;5.87;3.27;;;16.10;30.20;;;;;;10411588;28;20231;-81
2023/05/09 10:24:54;;;;;;;3.07;2.70;;;16.20;33.40;;;;;;10415163;28;20250;-82
2023/05/09 10:30:09;;;;;;;6.97;2.97;;;16.10;25.50;;;;;;10415543;28;20634;-82
2023/05/09 10:35:15;;;;;;;6.80;3.20;;;16.10;26.70;;;;;;10454934;28;20273;-80
2023/05/09 10:40:19;;;;;;;5.37;3.90;;;16.20;24.40;;;;;;10454619;28;20266;-81
2023/05/09 10:45:22;;;;;;;4.80;4.00;;;16.20;23.50;;;;;;10432154;28;20380;-81
2023/05/09 10:50:25;;;;;;;19.83;4.93;;;16.30;25.30;;;;;;10417004;28;20232;-80
2023/05/09 10:55:46;;;;;;;6.77;3.53;;;16.30;25.10;;;;;;10422262;28;20242;-81
2023/05/09 11:00:50;;;;;;;5.50;3.30;;;16.30;25.70;;;;;;10444194;28;20227;-81
2023/05/09 11:05:57;;;;;;;10.27;4.23;;;16.50;27.20;;;;;;10409937;28;20259;-82
2023/05/09 11:11:06;;;;;;;9.23;3.60;;;16.60;23.30;;;;;;10397405;28;20757;-81
2023/05/09 11:16:10;;;;;;;8.03;4.17;;;16.70;26.30;;;;;;10409793;28;20231;-81
2023/05/09 11:21:13;;;;;;;8.50;2.03;;;16.80;24.90;;;;;;10406921;28;20227;-80
2023/05/09 11:26:21;;;;;;;6.70;4.13;;;16.80;26.90;;;;;;10409054;28;20659;-81
2023/05/09 11:31:23;;;;;;;10.47;3.13;;;16.80;24.10;;;;;;10400910;28;20227;-81
2023/05/09 11:36:32;;;;;;;7.70;3.37;;;16.90;23.50;;;;;;10409450;28;20614;-80
2023/05/09 11:41:40;;;;;;;3.27;2.67;;;16.90;21.80;;;;;;10411748;28;20263;-80
2023/05/09 11:46:47;;;;;;;3.83;2.10;;;17.00;22.20;;;;;;10407791;28;20247;-80
2023/05/09 11:51:50;;;;;;;6.90;2.70;;;16.90;23.10;;;;;;10410341;28;20228;-80
2023/05/09 11:56:53;;;;;;;7.63;2.70;;;16.90;19.50;;;;;;10416278;28;20239;-81
2023/05/09 12:01:56;;;;;;;2.93;2.20;;;17.00;22.00;;;;;;10440049;28;20654;-81
2023/05/09 12:07:00;;;;;;;2.43;2.23;;;17.10;24.40;;;;;;10450078;28;20493;-82
2023/05/09 12:12:12;;;;;;;4.20;2.20;;;17.10;24.50;;;;;;10450151;28;20289;-82
2023/05/09 12:17:15;;;;;;;3.77;2.00;;;17.10;24.30;;;;;;10451341;28;20612;-82
2023/05/09 12:22:18;;;;;;;2.97;2.10;;;17.10;25.30;;;;;;10448175;28;20644;-82
2023/05/09 12:27:22;;;;;;;10.30;2.10;;;17.00;25.70;;;;;;10451425;28;20242;-81
2023/05/09 12:32:30;;;;;;;6.80;2.10;;;17.00;25.40;;;;;;10427282;28;20299;-81
2023/05/09 12:37:33;;;;;;;5.87;1.90;;;16.90;25.20;;;;;;10434895;28;20296;-81
2023/05/09 12:42:36;;;;;;;2.67;2.40;;;17.00;26.60;;;;;;10414402;28;20235;-80
2023/05/09 12:47:40;;;;;;;4.10;2.13;;;17.10;28.10;;;;;;10412534;28;20251;-80
2023/05/09 12:52:48;;;;;;;5.60;1.90;;;17.20;24.70;;;;;;10412482;28;20200;-81
2023/05/09 12:58:04;;;;;;;4.50;2.43;;;17.40;23.70;;;;;;10411294;28;20636;-81
2023/05/09 13:03:23;;;;;;;4.27;2.30;;;17.40;18.90;;;;;;10410367;28;20573;-81
2023/05/09 13:08:28;;;;;;;4.40;2.47;;;17.50;17.10;;;;;;10378658;28;20275;-84
2023/05/09 13:13:30;;;;;;;2.90;2.47;;;17.60;16.10;;;;;;10413584;28;20204;-84
2023/05/09 13:18:33;;;;;;;5.27;2.57;;;17.60;18.90;;;;;;10412140;28;20569;-81
2023/05/09 13:23:36;;;;;;;6.93;1.90;;;17.70;14.60;;;;;;10408983;28;20266;-79
2023/05/09 13:28:38;;;;;;;4.00;1.80;;;17.90;20.30;;;;;;10411012;28;20212;-82
2023/05/09 13:33:40;;;;;;;4.33;2.60;;;17.80;21.30;;;;;;10411271;28;20683;-82
2023/05/09 13:38:44;;;;;;;5.00;2.27;;;17.80;18.20;;;;;;10411055;28;20212;-82
2023/05/09 13:43:47;;;;;;;3.43;2.40;;;17.90;20.10;;;;;;10398398;28;20236;-82
2023/05/09 13:48:51;;;;;;;3.07;2.60;;;17.90;18.80;;;;;;10385267;28;20254;-83
2023/05/09 13:53:53;;;;;;;3.43;1.80;;;17.90;17.40;;;;;;10384822;28;20286;-83
2023/05/09 13:58:56;;;;;;;10.83;2.67;;;17.90;19.00;;;;;;10384352;28;20633;-82
2023/05/09 14:03:58;;;;;;;5.50;1.47;;;17.80;19.30;;;;;;10370658;28;20239;-81
2023/05/09 14:09:02;;;;;;;5.23;2.07;;;17.80;20.90;;;;;;10369265;28;20778;-81
2023/05/09 14:14:05;;;;;;;4.53;2.13;;;17.70;19.40;;;;;;10369457;28;20613;-83
2023/05/09 14:19:08;;;;;;;2.63;1.93;;;17.70;19.10;;;;;;10369688;28;20331;-83
2023/05/09 14:24:11;;;;;;;4.07;2.17;;;17.70;21.10;;;;;;10387203;28;20203;-82
2023/05/09 14:29:17;;;;;;;8.73;2.90;;;17.60;20.50;;;;;;10410417;28;20943;-82
2023/05/09 14:34:19;;;;;;;3.47;2.30;;;17.70;21.40;;;;;;10408842;28;20246;-82
2023/05/09 14:39:22;;;;;;;2.23;2.00;;;17.60;19.40;;;;;;10410199;28;20195;-82
2023/05/09 14:44:25;;;;;;;2.73;2.00;;;17.60;22.90;;;;;;10410648;28;20242;-83
2023/05/09 14:49:27;;;;;;;6.03;2.47;;;17.50;17.40;;;;;;10416664;28;20244;-82
2023/05/09 14:54:30;;;;;;;9.10;3.23;;;17.50;19.40;;;;;;10418782;28;20557;-83
2023/05/09 14:59:33;;;;;;;4.70;2.33;;;17.60;18.10;;;;;;10420491;28;20242;-82
2023/05/09 15:04:40;;;;;;;3.40;1.63;;;17.60;18.60;;;;;;10418173;28;20515;-82
2023/05/09 15:09:43;;;;;;;3.53;1.87;;;17.50;22.70;;;;;;10418215;28;20211;-82
2023/05/09 15:14:46;;;;;;;3.43;2.00;;;17.40;21.50;;;;;;10423026;28;20200;-82
2023/05/09 15:19:48;;;;;;;9.83;2.43;;;17.40;21.90;;;;;;10421327;28;20196;-81
2023/05/09 15:24:51;;;;;;;10.20;2.37;;;17.40;19.10;;;;;;10427652;28;20227;-81
2023/05/09 15:29:53;;;;;;;2.93;2.33;;;17.40;20.30;;;;;;10481864;28;20253;-81
2023/05/09 15:34:56;;;;;;;5.10;2.60;;;17.30;16.30;;;;;;10455522;28;20237;-81
2023/05/09 15:39:59;;;;;;;14.87;3.10;;;17.30;16.40;;;;;;10434311;28;20284;-79
2023/05/09 15:45:02;;;;;;;7.67;3.47;;;17.50;18.00;;;;;;10428129;28;20198;-81
2023/05/09 15:50:05;;;;;;;5.97;2.13;;;17.60;19.50;;;;;;10452246;28;20642;-80
2023/05/09 15:55:08;;;;;;;8.90;2.10;;;17.70;20.90;;;;;;10423277;28;20208;-81
2023/05/09 16:00:14;;;;;;;11.33;2.63;;;17.90;20.80;;;;;;10067454;28;10000338;-80
2023/05/09 16:05:18;;;;;;;4.97;2.20;;;;;;;;;;10417322;28;20563;-80
2023/05/09 16:10:20;;;;;;;3.17;1.87;;;18.00;19.30;;;;;;10415469;28;20262;-81
2023/05/09 16:15:23;;;;;;;3.93;2.03;;;18.00;17.90;;;;;;10414441;28;20800;-81
2023/05/09 16:20:26;;;;;;;6.73;2.97;;;18.10;18.60;;;;;;10410819;28;20238;-80
2023/05/09 16:25:28;;;;;;;5.63;1.40;;;18.10;17.60;;;;;;10408704;28;20312;-81
2023/05/09 16:30:31;;;;;;;3.30;1.83;;;18.20;21.30;;;;;;10391856;28;20208;-80
2023/05/09 16:35:34;;;;;;;8.03;2.40;;;18.20;20.10;;;;;;10435132;28;20231;-81
2023/05/09 16:40:37;;;;;;;5.73;1.90;;;18.30;20.70;;;;;;10438440;28;20308;-80
2023/05/09 16:45:40;;;;;;;4.10;1.97;;;18.30;19.40;;;;;;10416274;28;20231;-81
2023/05/09 16:50:44;;;;;;;5.50;2.50;;;18.40;23.00;;;;;;10410624;28;20289;-81
2023/05/09 16:55:46;;;;;;;11.27;2.77;;;18.40;19.90;;;;;;10419859;28;20203;-81
2023/05/09 17:00:49;;;;;;;4.93;2.23;;;18.40;23.10;;;;;;10446834;28;20213;-81
2023/05/09 17:05:52;;;;;;;6.43;2.43;;;18.30;22.90;;;;;;10456107;28;20226;-81
2023/05/09 17:10:54;;;;;;;3.67;2.00;;;18.30;23.10;;;;;;10425684;28;20226;-80
2023/05/09 17:15:57;;;;;;;2.87;2.17;;;18.10;21.70;;;;;;10428229;28;20203;-80
2023/05/09 17:21:00;;;;;;;13.30;2.20;;;17.90;17.80;;;;;;10428297;28;20920;-80
2023/05/09 17:26:03;;;;;;;4.00;1.80;;;17.70;20.60;;;;;;10424086;28;20247;-80
2023/05/09 17:31:06;;;;;;;4.30;2.30;;;17.50;18.70;;;;;;10430841;28;20221;-79
2023/05/09 17:36:08;;;;;;;2.43;2.20;;;17.30;18.10;;;;;;10446718;28;20194;-85
2023/05/09 17:41:11;;;;;;;7.90;2.70;;;17.10;21.10;;;;;;10467771;28;20291;-81
2023/05/09 17:46:13;;;;;;;5.30;2.90;;;16.90;19.70;;;;;;10454815;28;20223;-80
2023/05/09 17:51:16;;;;;;;15.93;5.07;;;16.70;18.80;;;;;;10441466;28;20204;-81
2023/05/09 17:56:18;;;;;;;9.53;3.50;;;16.40;17.50;;;;;;10435068;28;20204;-82
2023/05/09 18:01:21;;;;;;;7.27;3.07;;;16.10;19.20;;;;;;10459636;28;20183;-84
2023/05/09 18:06:25;;;;;;;5.87;2.73;;;15.80;19.80;;;;;;10461967;28;20230;-83
2023/05/09 18:11:27;;;;;;;3.37;2.40;;;15.60;21.70;;;;;;10427467;28;20260;-82
2023/05/09 18:16:30;;;;;;;13.07;2.73;;;15.50;22.20;;;;;;10424189;28;20242;-81
2023/05/09 18:21:33;;;;;;;9.27;3.63;;;15.20;21.10;;;;;;10457970;28;20292;-81
2023/05/09 18:26:35;;;;;;;9.40;2.93;;;14.90;23.90;;;;;;10457031;28;20265;-82
2023/05/09 18:31:40;;;;;;;5.93;2.30;;;14.50;25.20;;;;;;10430879;28;20208;-81
2023/05/09 18:36:43;;;;;;;8.87;3.47;;;14.30;26.90;;;;;;10423344;28;20240;-81
2023/05/09 18:41:45;;;;;;;11.67;4.40;;;14.00;28.30;;;;;;10444611;28;20238;-82
2023/05/09 18:46:48;;;;;;;3.20;2.57;;;13.70;28.80;;;;;;10438741;28;20589;-82
2023/05/09 18:51:52;;;;;;;12.37;4.87;;;;;;;;;;10437315;28;20934;-81
2023/05/09 18:56:54;;;;;;;11.27;5.63;;;13.20;31.50;;;;;;10426508;28;20237;-81
2023/05/09 19:01:57;;;;;;;12.03;6.93;;;13.00;31.70;;;;;;10416970;28;20230;-84
2023/05/09 19:06:59;;;;;;;10.97;5.27;;;12.40;33.10;;;;;;10416426;28;20254;-85
2023/05/09 19:12:03;;;;;;;11.23;6.23;;;;;;;;;;10445660;28;20203;-84
2023/05/09 19:17:06;;;;;;;3.73;2.63;;;11.90;69.40;;;;;;10447601;28;20226;-84
2023/05/09 19:22:09;;;;;;;12.50;5.10;;;11.80;55.50;;;;;;10418412;28;20236;-83
2023/05/09 19:27:11;;;;;;;18.50;6.03;;;12.20;53.80;;;;;;10422876;28;20239;-85
2023/05/09 19:32:14;;;;;;;10.40;5.40;;;12.00;49.10;;;;;;10448417;28;20566;-83
2023/05/09 19:37:16;;;;;;;16.80;5.90;;;11.90;49.90;;;;;;10423556;28;20277;-83
2023/05/09 19:42:20;;;;;;;10.37;5.30;;;11.80;53.20;;;;;;10414683;28;20947;-83
2023/05/09 19:47:22;;;;;;;16.03;6.33;;;11.80;58.60;;;;;;10421764;28;20588;-84
2023/05/09 19:52:25;;;;;;;13.23;6.00;;;12.00;57.40;;;;;;10455072;28;20204;-83
2023/05/09 19:57:28;;;;;;;6.47;5.10;;;11.90;53.50;;;;;;10427481;28;20217;-83
2023/05/09 20:02:31;;;;;;;11.67;5.17;;;11.80;61.60;;;;;;10415588;28;20198;-82
2023/05/09 20:07:34;;;;;;;10.07;7.47;;;11.70;61.30;;;;;;10462176;28;20231;-85
2023/05/09 20:12:36;;;;;;;11.83;6.67;;;11.70;61.60;;;;;;10443089;28;20217;-85
2023/05/09 20:17:39;;;;;;;18.13;8.00;;;;;;;;;;10439467;28;20209;-85
2023/05/09 20:22:42;;;;;;;10.17;6.17;;;11.00;61.90;;;;;;10430510;28;20205;-85
2023/05/09 20:27:44;;;;;;;10.47;6.80;;;11.00;63.60;;;;;;10436582;28;20268;-85
2023/05/09 20:32:47;;;;;;;16.47;8.93;;;10.90;66.70;;;;;;10425915;28;20834;-86
2023/05/09 20:37:50;;;;;;;25.97;12.27;;;10.80;70.70;;;;;;10394769;28;20632;-86
2023/05/09 20:42:52;;;;;;;7.37;4.93;;;10.90;77.20;;;;;;10411218;28;20228;-86
2023/05/09 20:47:55;;;;;;;26.03;13.77;;;11.10;87.60;;;;;;10413043;28;20256;-86
2023/05/09 20:52:58;;;;;;;9.37;6.33;;;11.40;85.60;;;;;;10427851;28;20199;-88
2023/05/09 20:58:00;;;;;;;7.63;5.50;;;11.50;91.80;;;;;;10412479;28;20234;-86
2023/05/09 21:03:03;;;;;;;14.83;8.23;;;11.60;91.40;;;;;;10423568;28;20199;-87
2023/05/09 21:08:06;;;;;;;9.23;6.00;;;11.70;86.50;;;;;;10415904;28;20296;-87
2023/05/09 21:13:08;;;;;;;10.43;5.43;;;11.80;81.40;;;;;;10406681;28;20204;-86
2023/05/09 21:18:11;;;;;;;9.73;4.93;;;11.70;84.90;;;;;;10410947;28;20207;-86
2023/05/09 21:23:13;;;;;;;4.17;3.33;;;11.60;75.50;;;;;;10407183;28;20212;-88
2023/05/09 21:28:16;;;;;;;6.07;3.63;;;11.70;83.10;;;;;;10412495;28;20257;-87
2023/05/09 21:33:19;;;;;;;5.13;3.43;;;11.70;78.70;;;;;;10412586;28;20260;-87
2023/05/09 21:38:22;;;;;;;9.67;5.80;;;11.80;79.60;;;;;;10411582;28;20634;-87
2023/05/09 21:43:25;;;;;;;5.83;4.30;;;11.60;71.50;;;;;;10407213;28;20671;-86
2023/05/09 21:48:27;;;;;;;7.27;5.37;;;11.50;82.20;;;;;;10410373;28;20251;-87
2023/05/09 21:53:30;;;;;;;18.50;8.17;;;11.60;79.30;;;;;;10448281;28;20555;-87
2023/05/09 21:58:35;;;;;;;11.77;7.43;;;11.40;72.20;;;;;;10435893;28;20237;-87
2023/05/09 22:03:37;;;;;;;13.30;6.80;;;11.30;74.60;;;;;;10408840;28;20213;-87
2023/05/09 22:08:40;;;;;;;9.43;6.50;;;11.20;78.60;;;;;;10410374;28;20245;-87
2023/05/09 22:13:43;;;;;;;12.30;7.30;;;11.10;81.90;;;;;;10412505;28;20209;-87
2023/05/09 22:18:45;;;;;;;13.53;8.10;;;11.00;84.50;;;;;;10429433;28;20256;-83
2023/05/09 22:23:48;;;;;;;14.97;7.67;;;10.70;80.40;;;;;;10420163;28;20341;-83
2023/05/09 22:28:50;;;;;;;9.87;5.97;;;10.20;76.60;;;;;;10393804;28;20573;-82
2023/05/09 22:33:53;;;;;;;8.53;5.77;;;9.90;80.60;;;;;;10410810;28;20339;-84
2023/05/09 22:38:55;;;;;;;8.73;5.70;;;10.00;87.60;;;;;;10441905;28;20203;-82
2023/05/09 22:44:23;;;;;;;12.60;7.37;;;9.80;88.00;;;;;;10430492;28;20290;-84
2023/05/09 22:49:25;;;;;;;10.87;6.03;;;9.80;89.50;;;;;;10447786;28;20743;-84
2023/05/09 22:54:28;;;;;;;9.70;6.50;;;9.70;90.60;;;;;;10416734;28;20230;-84
2023/05/09 22:59:30;;;;;;;5.43;4.03;;;10.00;91.30;;;;;;10420208;28;20276;-84
2023/05/09 23:04:33;;;;;;;6.60;5.40;;;10.00;91.30;;;;;;10448380;28;20205;-84
2023/05/09 23:09:36;;;;;;;8.50;5.90;;;10.00;89.80;;;;;;10416888;28;20223;-84
2023/05/09 23:14:38;;;;;;;9.47;5.43;;;10.10;90.90;;;;;;10429226;28;20625;-84
2023/05/09 23:19:41;;;;;;;8.73;6.60;;;10.00;90.60;;;;;;10415619;28;20196;-84
2023/05/09 23:24:43;;;;;;;6.63;3.73;;;10.10;89.50;;;;;;10456869;28;20204;-84
2023/05/09 23:29:46;;;;;;;8.57;6.73;;;10.10;87.70;;;;;;10440203;28;20658;-84
2023/05/09 23:34:48;;;;;;;8.90;5.93;;;10.00;83.30;;;;;;10455877;28;20579;-84
2023/05/09 23:39:51;;;;;;;9.07;4.30;;;10.00;91.50;;;;;;10430825;28;20942;-84
2023/05/09 23:44:53;;;;;;;5.37;3.67;;;10.10;87.10;;;;;;10439558;28;20622;-84
2023/05/09 23:49:56;;;;;;;7.53;6.50;;;10.10;91.90;;;;;;10456458;28;20776;-84
